createdAt,value
2022-11-15T00:00:05.039Z,988.80
2022-11-15T00:01:05.052Z,988.77
2022-11-15T00:02:05.115Z,988.76
2022-11-15T00:03:05.069Z,988.84
2022-11-15T00:04:05.082Z,988.85
2022-11-15T00:05:05.114Z,988.81
2022-11-15T00:06:05.107Z,988.72
2022-11-15T00:07:05.197Z,988.75
2022-11-15T00:08:05.120Z,988.82
2022-11-15T00:09:05.142Z,988.82
2022-11-15T00:10:05.186Z,988.80
2022-11-15T00:11:05.157Z,988.81
2022-11-15T00:12:05.184Z,988.76
2022-11-15T00:13:05.183Z,988.73
2022-11-15T00:14:05.260Z,988.74
2022-11-15T00:15:05.244Z,988.87
2022-11-15T00:16:05.221Z,988.76
2022-11-15T00:17:05.235Z,988.86
2022-11-15T00:18:05.251Z,988.85
2022-11-15T00:19:05.259Z,988.83
2022-11-15T00:20:05.275Z,988.86
2022-11-15T00:21:05.276Z,988.81
2022-11-15T00:22:05.296Z,988.81
2022-11-15T00:23:05.312Z,988.75
2022-11-15T00:24:05.326Z,988.78
2022-11-15T00:25:05.299Z,988.80
2022-11-15T00:26:05.321Z,988.72
2022-11-15T00:27:07.923Z,988.69
2022-11-15T00:28:05.363Z,988.78
2022-11-15T00:29:05.317Z,988.73
2022-11-15T00:30:05.323Z,988.80
2022-11-15T00:31:05.392Z,988.75
2022-11-15T00:32:05.340Z,988.74
2022-11-15T00:33:05.385Z,988.72
2022-11-15T00:34:05.351Z,988.73
2022-11-15T00:35:05.366Z,988.72
2022-11-15T00:36:05.361Z,988.78
2022-11-15T00:37:05.357Z,988.78
2022-11-15T00:38:05.376Z,988.73
2022-11-15T00:39:05.363Z,988.72
2022-11-15T00:40:05.369Z,988.74
2022-11-15T00:41:09.299Z,988.74
2022-11-15T00:42:05.379Z,988.71
2022-11-15T00:43:05.360Z,988.72
2022-11-15T00:44:05.368Z,988.73
2022-11-15T00:45:05.380Z,988.63
2022-11-15T00:46:05.385Z,988.66
2022-11-15T00:47:05.382Z,988.69
2022-11-15T00:48:05.366Z,988.66
2022-11-15T00:49:05.380Z,988.75
2022-11-15T00:50:05.386Z,988.70
2022-11-15T00:51:05.370Z,988.72
2022-11-15T00:52:05.393Z,988.64
2022-11-15T00:53:05.411Z,988.74
2022-11-15T00:54:05.377Z,988.64
2022-11-15T00:55:05.379Z,988.62
2022-11-15T00:56:05.381Z,988.65
2022-11-15T00:57:05.389Z,988.67
2022-11-15T00:58:05.423Z,988.61
2022-11-15T00:59:05.387Z,988.55
2022-11-15T01:00:05.350Z,988.55
2022-11-15T01:01:05.444Z,988.53
2022-11-15T01:02:05.365Z,988.44
2022-11-15T01:03:05.382Z,988.54
2022-11-15T01:04:05.421Z,988.52
2022-11-15T01:05:05.399Z,988.49
2022-11-15T01:06:05.395Z,988.49
2022-11-15T01:07:05.434Z,988.57
2022-11-15T01:08:05.391Z,988.51
2022-11-15T01:09:05.403Z,988.46
2022-11-15T01:10:05.415Z,988.48
2022-11-15T01:11:05.410Z,988.45
2022-11-15T01:12:05.400Z,988.47
2022-11-15T01:13:05.397Z,988.40
2022-11-15T01:14:05.430Z,988.49
2022-11-15T01:15:05.414Z,988.43
2022-11-15T01:16:05.416Z,988.44
2022-11-15T01:17:05.402Z,988.37
2022-11-15T01:18:05.395Z,988.39
2022-11-15T01:19:05.413Z,988.39
2022-11-15T01:20:05.405Z,988.33
2022-11-15T01:21:05.417Z,988.35
2022-11-15T01:22:05.408Z,988.26
2022-11-15T01:23:05.428Z,988.25
2022-11-15T01:24:05.444Z,988.36
2022-11-15T01:25:20.733Z,988.35
2022-11-15T01:26:20.721Z,988.31
2022-11-15T01:27:20.725Z,988.34
2022-11-15T01:28:20.741Z,988.29
2022-11-15T01:29:20.766Z,988.34
2022-11-15T01:30:20.736Z,988.31
2022-11-15T01:31:20.738Z,988.23
2022-11-15T01:32:20.743Z,988.18
2022-11-15T01:33:20.748Z,988.28
2022-11-15T01:34:20.738Z,988.24
2022-11-15T01:35:20.758Z,988.19
2022-11-15T01:36:20.737Z,988.15
2022-11-15T01:37:20.737Z,988.14
2022-11-15T01:38:20.725Z,988.13
2022-11-15T01:39:20.743Z,988.13
2022-11-15T01:40:20.762Z,988.16
2022-11-15T01:41:20.741Z,988.18
2022-11-15T01:42:20.737Z,988.21
2022-11-15T01:43:20.779Z,988.19
2022-11-15T01:44:20.744Z,988.18
2022-11-15T01:45:20.752Z,988.18
2022-11-15T01:46:20.761Z,988.17
2022-11-15T01:47:20.764Z,988.20
2022-11-15T01:48:20.754Z,988.19
2022-11-15T01:49:20.751Z,988.15
2022-11-15T01:50:20.746Z,988.10
2022-11-15T01:51:20.752Z,988.14
2022-11-15T01:52:20.764Z,988.20
2022-11-15T01:53:20.757Z,988.22
2022-11-15T01:54:20.754Z,988.10
2022-11-15T01:55:20.754Z,988.07
2022-11-15T01:56:20.775Z,988.13
2022-11-15T01:57:20.755Z,988.17
2022-11-15T01:58:20.754Z,988.20
2022-11-15T01:59:20.762Z,988.10
2022-11-15T02:00:20.756Z,988.10
2022-11-15T02:01:20.959Z,988.12
2022-11-15T02:02:20.922Z,988.06
2022-11-15T02:03:20.960Z,988.02
2022-11-15T02:04:20.948Z,988.02
2022-11-15T02:05:20.947Z,988.05
2022-11-15T02:06:20.955Z,988.05
2022-11-15T02:07:21.124Z,988.10
2022-11-15T02:08:21.227Z,988.00
2022-11-15T02:09:21.011Z,987.99
2022-11-15T02:10:21.028Z,988.03
2022-11-15T02:11:21.001Z,987.99
2022-11-15T02:12:21.063Z,988.02
2022-11-15T02:13:21.031Z,988.01
2022-11-15T02:14:21.060Z,988.02
2022-11-15T02:15:21.095Z,988.03
2022-11-15T02:16:21.082Z,988.00
2022-11-15T02:17:21.109Z,988.03
2022-11-15T02:18:21.098Z,987.97
2022-11-15T02:19:21.116Z,987.92
2022-11-15T02:20:21.145Z,987.94
2022-11-15T02:21:21.147Z,987.90
2022-11-15T02:22:21.163Z,987.94
2022-11-15T02:23:21.179Z,987.92
2022-11-15T02:24:21.183Z,987.89
2022-11-15T02:25:21.191Z,987.85
2022-11-15T02:26:21.201Z,987.84
2022-11-15T02:27:21.219Z,987.90
2022-11-15T02:28:21.235Z,987.80
2022-11-15T02:29:21.250Z,987.72
2022-11-15T02:30:21.250Z,987.74
2022-11-15T02:31:21.256Z,987.73
2022-11-15T02:32:21.285Z,987.65
2022-11-15T02:33:21.415Z,987.66
2022-11-15T02:34:21.304Z,987.69
2022-11-15T02:35:21.326Z,987.65
2022-11-15T02:36:21.323Z,987.65
2022-11-15T02:37:21.350Z,987.67
2022-11-15T02:38:21.374Z,987.74
2022-11-15T02:39:21.364Z,987.71
2022-11-15T02:40:21.412Z,987.66
2022-11-15T02:41:21.385Z,987.72
2022-11-15T02:42:21.404Z,987.74
2022-11-15T02:43:21.408Z,987.75
2022-11-15T02:44:21.424Z,987.80
2022-11-15T02:45:21.443Z,987.85
2022-11-15T02:46:21.451Z,987.71
2022-11-15T02:47:21.447Z,987.77
2022-11-15T02:48:21.476Z,987.77
2022-11-15T02:49:21.493Z,987.82
2022-11-15T02:50:21.519Z,987.76
2022-11-15T02:51:21.506Z,987.78
2022-11-15T02:52:21.521Z,987.81
2022-11-15T02:53:21.513Z,987.76
2022-11-15T02:54:21.535Z,987.82
2022-11-15T02:55:21.563Z,987.84
2022-11-15T02:56:21.569Z,987.83
2022-11-15T02:57:21.587Z,987.85
2022-11-15T02:58:21.596Z,987.80
2022-11-15T02:59:21.614Z,987.71
2022-11-15T03:00:21.613Z,987.78
2022-11-15T03:01:21.664Z,987.81
2022-11-15T03:02:21.621Z,987.71
2022-11-15T03:03:21.644Z,987.66
2022-11-15T03:04:21.664Z,987.68
2022-11-15T03:05:21.693Z,987.73
2022-11-15T03:06:21.687Z,987.69
2022-11-15T03:07:21.761Z,987.67
2022-11-15T03:08:21.723Z,987.73
2022-11-15T03:09:21.711Z,987.70
2022-11-15T03:10:21.779Z,987.74
2022-11-15T03:11:21.735Z,987.73
2022-11-15T03:12:21.748Z,987.73
2022-11-15T03:13:21.762Z,987.76
2022-11-15T03:14:21.776Z,987.68
2022-11-15T03:15:21.852Z,987.68
2022-11-15T03:16:21.806Z,987.66
2022-11-15T03:17:21.839Z,987.60
2022-11-15T03:18:21.827Z,987.65
2022-11-15T03:19:21.835Z,987.57
2022-11-15T03:20:21.870Z,987.57
2022-11-15T03:21:21.880Z,987.60
2022-11-15T03:22:21.863Z,987.58
2022-11-15T03:23:21.889Z,987.64
2022-11-15T03:24:25.889Z,987.66
2022-11-15T03:25:21.969Z,987.63
2022-11-15T03:26:21.917Z,987.62
2022-11-15T03:27:21.909Z,987.67
2022-11-15T03:28:21.910Z,987.59
2022-11-15T03:29:21.918Z,987.61
2022-11-15T03:30:21.932Z,987.60
2022-11-15T03:31:21.956Z,987.56
2022-11-15T03:32:21.915Z,987.67
2022-11-15T03:33:21.906Z,987.65
2022-11-15T03:34:21.932Z,987.72
2022-11-15T03:35:21.918Z,987.66
2022-11-15T03:36:21.904Z,987.61
2022-11-15T03:37:22.029Z,987.67
2022-11-15T03:38:21.995Z,987.68
2022-11-15T03:39:21.924Z,987.75
2022-11-15T03:40:21.952Z,987.71
2022-11-15T03:41:21.920Z,987.73
2022-11-15T03:42:21.924Z,987.71
2022-11-15T03:43:21.966Z,987.73
2022-11-15T03:44:21.917Z,987.72
2022-11-15T03:45:21.956Z,987.73
2022-11-15T03:46:21.925Z,987.75
2022-11-15T03:47:21.926Z,987.80
2022-11-15T03:48:21.954Z,987.78
2022-11-15T03:49:21.941Z,987.71
2022-11-15T03:50:21.953Z,987.77
2022-11-15T03:51:21.941Z,987.83
2022-11-15T03:52:21.936Z,987.73
2022-11-15T03:53:21.931Z,987.76
2022-11-15T03:54:21.940Z,987.82
2022-11-15T03:55:21.941Z,987.76
2022-11-15T03:56:21.933Z,987.76
2022-11-15T03:57:21.944Z,987.79
2022-11-15T03:58:21.937Z,987.79
2022-11-15T03:59:21.942Z,987.79
2022-11-15T04:00:21.969Z,987.78
2022-11-15T04:01:21.979Z,987.83
2022-11-15T04:02:21.943Z,987.78
2022-11-15T04:03:21.992Z,987.83
2022-11-15T04:04:21.949Z,987.85
2022-11-15T04:05:21.985Z,987.83
2022-11-15T04:06:22.264Z,987.89
2022-11-15T04:07:22.012Z,987.87
2022-11-15T04:08:21.959Z,987.95
2022-11-15T04:09:21.950Z,987.87
2022-11-15T04:10:21.936Z,987.90
2022-11-15T04:11:21.968Z,987.90
2022-11-15T04:12:21.955Z,987.92
2022-11-15T04:13:22.004Z,987.87
2022-11-15T04:14:22.006Z,987.88
2022-11-15T04:15:21.971Z,987.90
2022-11-15T04:16:22.015Z,987.90
2022-11-15T04:17:21.968Z,987.89
2022-11-15T04:18:21.963Z,987.85
2022-11-15T04:19:21.963Z,987.88
2022-11-15T04:20:21.961Z,987.81
2022-11-15T04:21:21.984Z,987.87
2022-11-15T04:22:21.961Z,987.83
2022-11-15T04:23:21.976Z,987.67
2022-11-15T04:24:22.008Z,987.76
2022-11-15T04:25:24.069Z,987.75
2022-11-15T04:26:21.981Z,987.70
2022-11-15T04:27:22.042Z,987.65
2022-11-15T04:28:21.969Z,987.66
2022-11-15T04:29:21.967Z,987.73
2022-11-15T04:30:21.978Z,987.67
2022-11-15T04:31:22.012Z,987.59
2022-11-15T04:32:22.042Z,987.60
2022-11-15T04:33:21.973Z,987.80
2022-11-15T04:34:21.976Z,987.72
2022-11-15T04:35:21.990Z,987.73
2022-11-15T04:36:21.994Z,987.80
2022-11-15T04:37:21.989Z,987.81
2022-11-15T04:38:22.004Z,987.83
2022-11-15T04:39:22.032Z,987.86
2022-11-15T04:40:22.021Z,987.77
2022-11-15T04:41:21.983Z,987.74
2022-11-15T04:42:21.992Z,987.71
2022-11-15T04:43:21.997Z,987.72
2022-11-15T04:44:22.035Z,987.67
2022-11-15T04:45:21.999Z,987.74
2022-11-15T04:46:21.998Z,987.67
2022-11-15T04:47:22.021Z,987.71
2022-11-15T04:48:22.028Z,987.78
2022-11-15T04:49:22.005Z,987.70
2022-11-15T04:50:21.985Z,987.72
2022-11-15T04:51:21.984Z,987.70
2022-11-15T04:52:21.994Z,987.67
2022-11-15T04:53:22.000Z,987.75
2022-11-15T04:54:22.046Z,987.69
2022-11-15T04:55:22.006Z,987.61
2022-11-15T04:56:22.015Z,987.63
2022-11-15T04:57:22.049Z,987.53
2022-11-15T04:58:22.012Z,987.53
2022-11-15T04:59:22.007Z,987.56
2022-11-15T05:00:22.011Z,987.59
2022-11-15T05:01:22.039Z,987.65
2022-11-15T05:02:21.983Z,987.52
2022-11-15T05:03:22.013Z,987.60
2022-11-15T05:04:22.064Z,987.49
2022-11-15T05:05:22.034Z,987.57
2022-11-15T05:06:22.049Z,987.55
2022-11-15T05:07:22.048Z,987.58
2022-11-15T05:08:22.067Z,987.54
2022-11-15T05:09:22.008Z,987.56
2022-11-15T05:10:22.013Z,987.57
2022-11-15T05:11:22.031Z,987.50
2022-11-15T05:12:22.016Z,987.52
2022-11-15T05:13:22.008Z,987.52
2022-11-15T05:14:22.017Z,987.48
2022-11-15T05:15:22.028Z,987.52
2022-11-15T05:16:22.074Z,987.53
2022-11-15T05:17:22.024Z,987.43
2022-11-15T05:18:23.754Z,987.47
2022-11-15T05:19:22.029Z,987.40
2022-11-15T05:20:22.033Z,987.41
2022-11-15T05:21:22.025Z,987.53
2022-11-15T05:22:22.073Z,987.39
2022-11-15T05:23:22.030Z,987.43
2022-11-15T05:24:22.069Z,987.42
2022-11-15T05:25:22.085Z,987.40
2022-11-15T05:26:22.023Z,987.36
2022-11-15T05:27:22.042Z,987.38
2022-11-15T05:28:22.034Z,987.30
2022-11-15T05:29:22.024Z,987.36
2022-11-15T05:30:22.060Z,987.41
2022-11-15T05:31:22.052Z,987.36
2022-11-15T05:32:22.039Z,987.33
2022-11-15T05:33:22.045Z,987.23
2022-11-15T05:34:22.035Z,987.36
2022-11-15T05:35:22.107Z,987.37
2022-11-15T05:36:22.052Z,987.41
2022-11-15T05:37:22.043Z,987.44
2022-11-15T05:38:22.082Z,987.36
2022-11-15T05:39:22.056Z,987.38
2022-11-15T05:40:22.046Z,987.48
2022-11-15T05:41:22.051Z,987.35
2022-11-15T05:42:22.045Z,987.36
2022-11-15T05:43:22.063Z,987.35
2022-11-15T05:44:22.085Z,987.32
2022-11-15T05:45:26.726Z,987.27
2022-11-15T05:46:22.136Z,987.24
2022-11-15T05:47:22.083Z,987.32
2022-11-15T05:48:22.105Z,987.22
2022-11-15T05:49:22.137Z,987.24
2022-11-15T05:50:22.156Z,987.20
2022-11-15T05:51:22.086Z,987.24
2022-11-15T05:52:22.105Z,987.33
2022-11-15T05:53:22.126Z,987.35
2022-11-15T05:54:22.081Z,987.31
2022-11-15T05:55:22.106Z,987.33
2022-11-15T05:56:22.103Z,987.36
2022-11-15T05:57:22.154Z,987.39
2022-11-15T05:58:22.100Z,987.48
2022-11-15T05:59:22.150Z,987.45
2022-11-15T06:00:22.128Z,987.40
2022-11-15T06:01:22.096Z,987.46
2022-11-15T06:02:22.168Z,987.43
2022-11-15T06:03:22.089Z,987.55
2022-11-15T06:04:22.148Z,987.51
2022-11-15T06:05:22.115Z,987.53
2022-11-15T06:06:22.160Z,987.50
2022-11-15T06:07:22.274Z,987.50
2022-11-15T06:08:22.104Z,987.42
2022-11-15T06:09:22.118Z,987.51
2022-11-15T06:10:22.105Z,987.49
2022-11-15T06:11:22.126Z,987.48
2022-11-15T06:12:22.113Z,987.56
2022-11-15T06:13:22.106Z,987.52
2022-11-15T06:14:22.119Z,987.56
2022-11-15T06:15:22.123Z,987.57
2022-11-15T06:16:22.128Z,987.56
2022-11-15T06:17:22.147Z,987.52
2022-11-15T06:18:22.118Z,987.51
2022-11-15T06:19:22.164Z,987.42
2022-11-15T06:20:22.122Z,987.45
2022-11-15T06:21:22.112Z,987.44
2022-11-15T06:22:22.137Z,987.45
2022-11-15T06:23:22.122Z,987.46
2022-11-15T06:24:22.164Z,987.40
2022-11-15T06:25:22.130Z,987.46
2022-11-15T06:26:22.129Z,987.40
2022-11-15T06:27:22.194Z,987.39
2022-11-15T06:28:22.128Z,987.33
2022-11-15T06:29:22.182Z,987.37
2022-11-15T06:30:22.131Z,987.29
2022-11-15T06:31:22.147Z,987.35
2022-11-15T06:32:22.139Z,987.39
2022-11-15T06:33:22.139Z,987.34
2022-11-15T06:34:22.139Z,987.37
2022-11-15T06:35:22.153Z,987.39
2022-11-15T06:36:22.186Z,987.25
2022-11-15T06:37:22.175Z,987.34
2022-11-15T06:38:22.156Z,987.29
2022-11-15T06:39:22.149Z,987.30
2022-11-15T06:40:22.181Z,987.31
2022-11-15T06:41:22.195Z,987.26
2022-11-15T06:42:22.165Z,987.32
2022-11-15T06:43:22.166Z,987.32
2022-11-15T06:44:22.141Z,987.27
2022-11-15T06:45:22.149Z,987.29
2022-11-15T06:46:22.201Z,987.34
2022-11-15T06:47:22.156Z,987.35
2022-11-15T06:48:22.152Z,987.40
2022-11-15T06:49:22.164Z,987.39
2022-11-15T06:50:22.150Z,987.48
2022-11-15T06:51:22.152Z,987.50
2022-11-15T06:52:22.160Z,987.46
2022-11-15T06:53:22.169Z,987.53
2022-11-15T06:54:22.169Z,987.48
2022-11-15T06:55:22.176Z,987.54
2022-11-15T06:56:22.161Z,987.62
2022-11-15T06:57:22.196Z,987.57
2022-11-15T06:58:22.163Z,987.66
2022-11-15T06:59:22.164Z,987.73
2022-11-15T07:00:22.184Z,987.71
2022-11-15T07:01:22.209Z,987.72
2022-11-15T07:02:22.166Z,987.71
2022-11-15T07:03:22.181Z,987.71
2022-11-15T07:04:22.173Z,987.75
2022-11-15T07:05:22.234Z,987.69
2022-11-15T07:06:22.204Z,987.71
2022-11-15T07:07:22.229Z,987.71
2022-11-15T07:08:22.229Z,987.73
2022-11-15T07:09:22.237Z,987.73
2022-11-15T07:10:22.250Z,987.77
2022-11-15T07:11:22.262Z,987.75
2022-11-15T07:12:22.271Z,987.76
2022-11-15T07:13:22.289Z,987.75
2022-11-15T07:14:22.338Z,987.63
2022-11-15T07:15:22.300Z,987.65
2022-11-15T07:16:22.335Z,987.73
2022-11-15T07:17:22.321Z,987.68
2022-11-15T07:18:22.375Z,987.69
2022-11-15T07:19:22.345Z,987.61
2022-11-15T07:20:22.373Z,987.68
2022-11-15T07:21:26.237Z,987.67
2022-11-15T07:22:22.371Z,987.64
2022-11-15T07:23:22.377Z,987.65
2022-11-15T07:24:22.383Z,987.68
2022-11-15T07:25:44.719Z,987.75
2022-11-15T07:26:44.714Z,987.70
2022-11-15T07:27:44.751Z,987.78
2022-11-15T07:28:44.741Z,987.72
2022-11-15T07:29:44.734Z,987.78
2022-11-15T07:30:45.462Z,987.76
2022-11-15T07:31:44.752Z,987.73
2022-11-15T07:32:44.739Z,987.81
2022-11-15T07:33:44.734Z,987.81
2022-11-15T07:34:44.742Z,987.86
2022-11-15T07:35:44.754Z,987.79
2022-11-15T07:36:44.769Z,987.82
2022-11-15T07:37:44.769Z,987.77
2022-11-15T07:38:44.744Z,987.74
2022-11-15T07:39:44.760Z,987.71
2022-11-15T07:40:44.755Z,987.69
2022-11-15T07:41:44.748Z,987.60
2022-11-15T07:42:44.748Z,987.56
2022-11-15T07:43:44.755Z,987.61
2022-11-15T07:44:44.749Z,987.60
2022-11-15T07:45:44.766Z,987.58
2022-11-15T07:46:44.764Z,987.58
2022-11-15T07:47:44.763Z,987.66
2022-11-15T07:48:45.821Z,987.63
2022-11-15T07:49:44.788Z,987.62
2022-11-15T07:50:44.756Z,987.59
2022-11-15T07:51:44.776Z,987.64
2022-11-15T07:52:44.762Z,987.63
2022-11-15T07:53:44.764Z,987.66
2022-11-15T07:54:44.756Z,987.61
2022-11-15T07:55:44.781Z,987.62
2022-11-15T07:56:44.784Z,987.69
2022-11-15T07:57:44.767Z,987.67
2022-11-15T07:58:44.781Z,987.61
2022-11-15T07:59:44.757Z,987.70
2022-11-15T08:00:44.801Z,987.65
2022-11-15T08:01:44.987Z,987.76
2022-11-15T08:02:45.055Z,987.73
2022-11-15T08:03:44.906Z,987.70
2022-11-15T08:04:44.921Z,987.72
2022-11-15T08:05:44.974Z,987.70
2022-11-15T08:06:45.070Z,987.68
2022-11-15T08:07:44.964Z,987.61
2022-11-15T08:08:44.981Z,987.66
2022-11-15T08:09:45.068Z,987.68
2022-11-15T08:10:45.011Z,987.65
2022-11-15T08:11:45.049Z,987.70
2022-11-15T08:12:45.160Z,987.66
2022-11-15T08:13:45.043Z,987.65
2022-11-15T08:14:45.044Z,987.62
2022-11-15T08:15:45.085Z,987.68
2022-11-15T08:16:45.081Z,987.69
2022-11-15T08:17:45.114Z,987.62
2022-11-15T08:18:45.100Z,987.56
2022-11-15T08:19:45.115Z,987.59
2022-11-15T08:20:45.139Z,987.53
2022-11-15T08:21:45.144Z,987.54
2022-11-15T08:22:45.174Z,987.53
2022-11-15T08:23:45.179Z,987.49
2022-11-15T08:24:45.187Z,987.47
2022-11-15T08:25:45.188Z,987.44
2022-11-15T08:26:45.246Z,987.50
2022-11-15T08:27:45.236Z,987.44
2022-11-15T08:28:45.225Z,987.49
2022-11-15T08:29:45.268Z,987.45
2022-11-15T08:30:45.252Z,987.44
2022-11-15T08:31:45.277Z,987.47
2022-11-15T08:32:45.305Z,987.48
2022-11-15T08:33:45.276Z,987.48
2022-11-15T08:34:45.306Z,987.47
2022-11-15T08:35:45.314Z,987.44
2022-11-15T08:36:46.243Z,987.44
2022-11-15T08:37:45.345Z,987.42
2022-11-15T08:38:45.403Z,987.40
2022-11-15T08:39:45.361Z,987.43
2022-11-15T08:40:45.372Z,987.41
2022-11-15T08:41:45.503Z,987.40
2022-11-15T08:42:45.414Z,987.38
2022-11-15T08:43:45.409Z,987.36
2022-11-15T08:44:45.431Z,987.38
2022-11-15T08:45:45.419Z,987.29
2022-11-15T08:46:45.441Z,987.29
2022-11-15T08:47:49.713Z,987.38
2022-11-15T08:48:45.446Z,987.35
2022-11-15T08:49:45.448Z,987.38
2022-11-15T08:50:45.456Z,987.28
2022-11-15T08:51:45.428Z,987.36
2022-11-15T08:52:45.451Z,987.35
2022-11-15T08:53:45.492Z,987.31
2022-11-15T08:54:45.468Z,987.36
2022-11-15T08:55:45.471Z,987.31
2022-11-15T08:56:45.458Z,987.36
2022-11-15T08:57:45.464Z,987.24
2022-11-15T08:58:45.484Z,987.29
2022-11-15T08:59:45.469Z,987.27
2022-11-15T09:00:45.477Z,987.24
2022-11-15T09:01:45.561Z,987.32
2022-11-15T09:02:45.472Z,987.25
2022-11-15T09:03:45.481Z,987.24
2022-11-15T09:04:45.459Z,987.31
2022-11-15T09:05:45.478Z,987.21
2022-11-15T09:06:45.523Z,987.31
2022-11-15T09:07:45.478Z,987.30
2022-11-15T09:08:48.105Z,987.32
2022-11-15T09:09:45.497Z,987.32
2022-11-15T09:10:45.491Z,987.25
2022-11-15T09:11:45.476Z,987.23
2022-11-15T09:12:45.487Z,987.27
2022-11-15T09:13:45.502Z,987.28
2022-11-15T09:14:45.482Z,987.33
2022-11-15T09:15:45.500Z,987.20
2022-11-15T09:16:45.482Z,987.19
2022-11-15T09:17:45.504Z,987.17
2022-11-15T09:18:45.488Z,987.20
2022-11-15T09:19:45.491Z,987.17
2022-11-15T09:20:45.488Z,987.20
2022-11-15T09:21:45.499Z,987.21
2022-11-15T09:22:45.491Z,987.20
2022-11-15T09:23:45.497Z,987.11
2022-11-15T09:24:45.514Z,987.14
2022-11-15T09:25:45.510Z,987.23
2022-11-15T09:26:45.502Z,987.17
2022-11-15T09:27:45.493Z,987.20
2022-11-15T09:28:45.498Z,987.16
2022-11-15T09:29:45.502Z,987.19
2022-11-15T09:30:45.524Z,987.21
2022-11-15T09:31:45.497Z,987.24
2022-11-15T09:32:45.494Z,987.25
2022-11-15T09:33:45.508Z,987.21
2022-11-15T09:34:45.500Z,987.18
2022-11-15T09:35:45.511Z,987.16
2022-11-15T09:36:45.511Z,987.18
2022-11-15T09:37:45.517Z,987.22
2022-11-15T09:38:45.505Z,987.19
2022-11-15T09:39:45.514Z,987.19
2022-11-15T09:40:45.537Z,987.18
2022-11-15T09:41:45.507Z,987.26
2022-11-15T09:42:45.513Z,987.18
2022-11-15T09:43:45.516Z,987.18
2022-11-15T09:44:45.520Z,987.22
2022-11-15T09:45:45.534Z,987.23
2022-11-15T09:46:45.511Z,987.23
2022-11-15T09:47:45.517Z,987.27
2022-11-15T09:48:45.518Z,987.22
2022-11-15T09:49:45.521Z,987.29
2022-11-15T09:50:45.511Z,987.15
2022-11-15T09:51:45.528Z,987.19
2022-11-15T09:52:45.542Z,987.17
2022-11-15T09:54:30.340Z,987.08
2022-11-15T09:54:53.262Z,987.10
2022-11-15T09:55:45.557Z,987.10
2022-11-15T09:56:45.554Z,987.07
2022-11-15T09:57:45.570Z,987.13
2022-11-15T09:58:45.556Z,987.10
2022-11-15T09:59:45.558Z,987.05
2022-11-15T10:00:47.535Z,987.14
2022-11-15T10:01:45.634Z,987.07
2022-11-15T10:02:45.653Z,987.03
2022-11-15T10:03:45.649Z,987.06
2022-11-15T10:04:45.668Z,987.08
2022-11-15T10:05:45.699Z,987.02
2022-11-15T10:06:45.721Z,987.11
2022-11-15T10:07:45.707Z,987.03
2022-11-15T10:08:45.727Z,986.98
2022-11-15T10:09:45.728Z,987.03
2022-11-15T10:10:45.759Z,987.01
2022-11-15T10:11:45.767Z,987.05
2022-11-15T10:12:45.772Z,986.88
2022-11-15T10:13:45.805Z,986.98
2022-11-15T10:14:48.087Z,986.92
2022-11-15T10:15:45.791Z,986.99
2022-11-15T10:16:45.795Z,986.89
2022-11-15T10:17:45.804Z,986.91
2022-11-15T10:18:45.810Z,986.90
2022-11-15T10:19:45.798Z,986.84
2022-11-15T10:20:45.797Z,986.88
2022-11-15T10:21:45.812Z,986.80
2022-11-15T10:22:45.797Z,986.74
2022-11-15T10:23:45.807Z,986.79
2022-11-15T10:24:45.792Z,986.79
2022-11-15T10:25:45.790Z,986.79
2022-11-15T10:26:45.805Z,986.74
2022-11-15T10:27:45.808Z,986.68
2022-11-15T10:28:45.810Z,986.62
2022-11-15T10:29:45.803Z,986.68
2022-11-15T10:30:45.836Z,986.67
2022-11-15T10:31:45.836Z,986.73
2022-11-15T10:32:45.808Z,986.65
2022-11-15T10:33:45.801Z,986.73
2022-11-15T10:34:45.828Z,986.71
2022-11-15T10:35:45.810Z,986.73
2022-11-15T10:36:50.114Z,986.73
2022-11-15T10:37:45.820Z,986.73
2022-11-15T10:38:45.803Z,986.62
2022-11-15T10:39:45.842Z,986.70
2022-11-15T10:40:45.808Z,986.59
2022-11-15T10:41:45.819Z,986.56
2022-11-15T10:42:45.821Z,986.60
2022-11-15T10:43:45.817Z,986.50
2022-11-15T10:44:45.849Z,986.55
2022-11-15T10:45:45.808Z,986.53
2022-11-15T10:46:46.982Z,986.49
2022-11-15T10:47:45.829Z,986.49
2022-11-15T10:48:45.819Z,986.39
2022-11-15T10:49:45.872Z,986.36
2022-11-15T10:50:45.833Z,986.42
2022-11-15T10:51:45.831Z,986.40
2022-11-15T10:52:45.822Z,986.40
2022-11-15T10:53:45.867Z,986.31
2022-11-15T10:54:45.824Z,986.31
2022-11-15T10:55:45.839Z,986.24
2022-11-15T10:56:45.829Z,986.29
2022-11-15T10:57:45.844Z,986.16
2022-11-15T10:58:45.840Z,986.17
2022-11-15T10:59:46.964Z,986.14
2022-11-15T11:00:45.851Z,986.15
2022-11-15T11:01:45.866Z,986.05
2022-11-15T11:02:45.846Z,986.01
2022-11-15T11:03:45.837Z,986.05
2022-11-15T11:04:45.847Z,985.99
2022-11-15T11:05:45.858Z,985.96
2022-11-15T11:06:45.891Z,986.04
2022-11-15T11:07:45.848Z,985.94
2022-11-15T11:08:45.845Z,985.90
2022-11-15T11:09:45.839Z,985.93
2022-11-15T11:10:51.476Z,985.95
2022-11-15T11:11:45.850Z,985.94
2022-11-15T11:12:45.833Z,985.88
2022-11-15T11:13:45.848Z,985.87
2022-11-15T11:14:45.850Z,985.82
2022-11-15T11:15:45.852Z,985.79
2022-11-15T11:16:45.860Z,985.81
2022-11-15T11:17:45.864Z,985.71
2022-11-15T11:18:45.854Z,985.80
2022-11-15T11:19:45.858Z,985.75
2022-11-15T11:20:45.861Z,985.71
2022-11-15T11:21:45.869Z,985.72
2022-11-15T11:22:45.847Z,985.65
2022-11-15T11:23:45.855Z,985.67
2022-11-15T11:24:45.864Z,985.73
2022-11-15T11:25:45.863Z,985.64
2022-11-15T11:26:45.893Z,985.68
2022-11-15T11:27:45.887Z,985.65
2022-11-15T11:28:45.871Z,985.64
2022-11-15T11:29:45.863Z,985.62
2022-11-15T11:30:45.873Z,985.65
2022-11-15T11:31:45.874Z,985.59
2022-11-15T11:32:45.884Z,985.54
2022-11-15T11:33:45.869Z,985.57
2022-11-15T11:34:45.873Z,985.51
2022-11-15T11:35:45.884Z,985.56
2022-11-15T11:36:45.881Z,985.57
2022-11-15T11:37:45.894Z,985.58
2022-11-15T11:38:45.892Z,985.63
2022-11-15T11:39:45.910Z,985.57
2022-11-15T11:40:45.872Z,985.56
2022-11-15T11:41:45.885Z,985.52
2022-11-15T11:42:45.898Z,985.51
2022-11-15T11:43:45.902Z,985.55
2022-11-15T11:44:45.892Z,985.51
2022-11-15T11:45:47.443Z,985.54
2022-11-15T11:46:45.875Z,985.54
2022-11-15T11:47:45.901Z,985.47
2022-11-15T11:48:45.918Z,985.54
2022-11-15T11:49:46.016Z,985.51
2022-11-15T11:50:45.890Z,985.47
2022-11-15T11:51:45.876Z,985.54
2022-11-15T11:52:45.894Z,985.47
2022-11-15T11:53:45.907Z,985.41
2022-11-15T11:54:45.899Z,985.43
2022-11-15T11:55:45.908Z,985.42
2022-11-15T11:56:45.919Z,985.43
2022-11-15T11:57:45.908Z,985.43
2022-11-15T11:58:45.921Z,985.39
2022-11-15T11:59:45.923Z,985.43
2022-11-15T12:00:45.906Z,985.41
2022-11-15T12:01:46.065Z,985.38
2022-11-15T12:02:45.965Z,985.42
2022-11-15T12:03:45.909Z,985.44
2022-11-15T12:04:45.917Z,985.36
2022-11-15T12:05:45.922Z,985.39
2022-11-15T12:06:45.903Z,985.37
2022-11-15T12:07:45.913Z,985.39
2022-11-15T12:08:45.919Z,985.37
2022-11-15T12:09:45.916Z,985.33
2022-11-15T12:10:45.935Z,985.35
2022-11-15T12:11:45.914Z,985.34
2022-11-15T12:12:45.937Z,985.25
2022-11-15T12:13:45.949Z,985.22
2022-11-15T12:14:45.947Z,985.38
2022-11-15T12:15:46.005Z,985.23
2022-11-15T12:16:45.990Z,985.29
2022-11-15T12:17:46.002Z,985.23
2022-11-15T12:18:46.044Z,985.17
2022-11-15T12:19:46.027Z,985.20
2022-11-15T12:20:46.047Z,985.17
2022-11-15T12:21:46.043Z,985.21
2022-11-15T12:22:46.050Z,985.18
2022-11-15T12:23:46.065Z,985.11
2022-11-15T12:24:46.078Z,985.15
2022-11-15T12:25:46.098Z,985.19
2022-11-15T12:26:46.107Z,985.13
2022-11-15T12:27:46.106Z,985.16
2022-11-15T12:29:05.812Z,985.27